createdAt,value
2022-08-03T00:00:23.447Z,3.60
2022-08-03T00:02:50.140Z,4.03
2022-08-03T00:05:16.887Z,3.65
2022-08-03T00:07:43.517Z,3.90
2022-08-03T00:10:12.596Z,3.45
2022-08-03T00:12:39.277Z,3.22
2022-08-03T00:15:08.301Z,3.70
2022-08-03T00:17:52.959Z,3.40
2022-08-03T00:20:20.982Z,3.40
2022-08-03T00:22:47.666Z,3.35
2022-08-03T00:25:14.324Z,3.50
2022-08-03T00:27:40.978Z,3.38
2022-08-03T00:30:08.561Z,3.40
2022-08-03T00:32:35.224Z,3.42
2022-08-03T00:35:08.328Z,3.63
2022-08-03T00:37:40.977Z,3.33
2022-08-03T00:40:10.723Z,3.53
2022-08-03T00:42:46.854Z,3.47
2022-08-03T00:45:13.501Z,3.22
2022-08-03T00:47:40.146Z,3.75
2022-08-03T00:50:09.020Z,3.22
2022-08-03T00:52:35.854Z,3.30
2022-08-03T00:55:03.352Z,3.60
2022-08-03T00:57:31.886Z,3.65
2022-08-03T00:59:58.831Z,3.75
2022-08-03T01:02:25.579Z,3.78
2022-08-03T01:04:52.271Z,3.80
2022-08-03T01:07:30.154Z,3.50
2022-08-03T01:10:03.037Z,3.50
2022-08-03T01:12:37.112Z,4.20
2022-08-03T01:15:10.391Z,4.07
2022-08-03T01:17:48.404Z,3.80
2022-08-03T01:20:16.957Z,3.83
2022-08-03T01:23:28.971Z,3.45
2022-08-03T01:26:08.061Z,3.42
2022-08-03T01:28:54.742Z,4.03
2022-08-03T01:31:27.254Z,3.50
2022-08-03T01:33:58.832Z,3.45
2022-08-03T01:36:32.430Z,3.70
2022-08-03T01:39:01.941Z,3.50
2022-08-03T01:41:33.270Z,3.83
2022-08-03T01:44:29.090Z,3.63
2022-08-03T01:46:51.543Z,3.65
2022-08-03T01:49:18.251Z,4.40
2022-08-03T01:51:58.470Z,3.53
2022-08-03T01:54:34.787Z,3.67
2022-08-03T01:57:02.785Z,3.90
2022-08-03T01:59:32.386Z,3.53
2022-08-03T02:02:15.952Z,3.97
2022-08-03T02:04:50.361Z,3.53
2022-08-03T02:07:17.643Z,3.90
2022-08-03T02:09:47.011Z,3.28
2022-08-03T02:12:15.005Z,3.60
2022-08-03T02:14:44.196Z,3.55
2022-08-03T02:17:12.888Z,4.10
2022-08-03T02:19:40.557Z,3.85
2022-08-03T02:22:11.102Z,3.63
2022-08-03T02:24:38.150Z,4.32
2022-08-03T02:27:10.355Z,4.10
2022-08-03T02:29:41.018Z,3.92
2022-08-03T02:32:11.690Z,4.47
2022-08-03T02:34:42.133Z,4.00
2022-08-03T02:37:11.832Z,3.90
2022-08-03T02:39:40.910Z,3.95
2022-08-03T02:42:09.727Z,3.70
2022-08-03T02:44:40.394Z,3.75
2022-08-03T02:47:10.247Z,3.83
2022-08-03T02:49:51.340Z,4.10
2022-08-03T02:52:21.376Z,3.88
2022-08-03T02:54:50.801Z,4.40
2022-08-03T02:57:18.590Z,3.85
2022-08-03T02:59:46.155Z,4.20
2022-08-03T03:02:15.382Z,4.00
2022-08-03T03:07:31.523Z,4.18
2022-08-03T03:10:07.407Z,3.97
2022-08-03T03:12:37.079Z,4.18
2022-08-03T03:15:05.023Z,4.15
2022-08-03T03:17:33.087Z,3.92
2022-08-03T03:20:01.744Z,4.10
2022-08-03T03:22:29.693Z,4.10
2022-08-03T03:24:56.951Z,4.05
2022-08-03T03:27:25.431Z,3.70
2022-08-03T03:29:54.187Z,3.97
2022-08-03T03:32:20.932Z,3.88
2022-08-03T03:34:48.350Z,4.00
2022-08-03T03:37:16.370Z,3.50
2022-08-03T03:39:43.016Z,3.67
2022-08-03T03:42:09.919Z,3.78
2022-08-03T03:44:36.672Z,3.85
2022-08-03T03:47:03.571Z,3.85
2022-08-03T03:49:31.383Z,3.80
2022-08-03T03:51:58.139Z,3.55
2022-08-03T03:54:29.394Z,3.78
2022-08-03T03:56:56.265Z,3.50
2022-08-03T03:59:22.925Z,3.95
2022-08-03T04:01:58.833Z,3.97
2022-08-03T04:04:26.120Z,4.25
2022-08-03T04:06:52.761Z,3.83
2022-08-03T04:09:19.669Z,3.90
2022-08-03T04:11:51.387Z,4.18
2022-08-03T04:14:20.687Z,3.63
2022-08-03T04:19:23.469Z,3.67
2022-08-03T04:21:56.951Z,3.90
2022-08-03T04:24:27.367Z,3.83
2022-08-03T04:26:57.777Z,3.72
2022-08-03T04:29:27.170Z,3.67
2022-08-03T04:31:55.630Z,3.72
2022-08-03T04:34:22.493Z,3.67
2022-08-03T04:36:52.766Z,3.78
2022-08-03T04:39:24.463Z,3.45
2022-08-03T04:42:07.417Z,3.75
2022-08-03T04:44:40.962Z,3.92
2022-08-03T04:47:08.189Z,3.90
2022-08-03T04:49:36.969Z,3.60
2022-08-03T04:52:03.928Z,3.70
2022-08-03T04:54:30.825Z,3.38
2022-08-03T04:56:57.485Z,3.53
2022-08-03T04:59:24.110Z,3.58
2022-08-03T05:01:52.260Z,3.42
2022-08-03T05:04:18.920Z,3.60
2022-08-03T05:06:48.052Z,3.00
2022-08-03T05:09:15.243Z,3.38
2022-08-03T05:12:01.870Z,3.30
2022-08-03T05:14:28.554Z,3.67
2022-08-03T05:16:56.550Z,3.58
2022-08-03T05:19:23.192Z,3.20
2022-08-03T05:21:52.347Z,3.50
2022-08-03T05:24:19.609Z,3.92
2022-08-03T05:26:46.234Z,3.33
2022-08-03T05:29:13.130Z,3.60
2022-08-03T05:31:39.766Z,3.80
2022-08-03T05:34:07.998Z,3.60
2022-08-03T05:36:34.641Z,3.63
2022-08-03T05:39:02.912Z,3.20
2022-08-03T05:41:37.054Z,3.40
2022-08-03T05:44:04.830Z,3.55
2022-08-03T05:46:31.750Z,3.30
2022-08-03T05:48:58.496Z,3.53
2022-08-03T05:51:26.553Z,3.50
2022-08-03T05:53:53.170Z,3.10
2022-08-03T05:56:22.694Z,3.42
2022-08-03T05:58:49.353Z,3.67
2022-08-03T06:01:16.740Z,3.47
2022-08-03T06:03:43.995Z,3.58
2022-08-03T06:06:10.773Z,3.30
2022-08-03T06:08:39.016Z,3.17
2022-08-03T06:11:05.811Z,3.38
2022-08-03T06:13:32.711Z,3.58
2022-08-03T06:15:59.415Z,3.22
2022-08-03T06:18:26.103Z,3.00
2022-08-03T06:20:53.236Z,3.05
2022-08-03T06:23:20.317Z,3.38
2022-08-03T06:25:48.443Z,3.15
2022-08-03T06:31:02.031Z,2.75
2022-08-03T06:33:48.564Z,3.40
2022-08-03T06:36:15.670Z,3.20
2022-08-03T06:38:42.314Z,3.20
2022-08-03T06:41:10.300Z,3.05
2022-08-03T06:43:37.002Z,2.95
2022-08-03T06:46:03.746Z,2.75
2022-08-03T06:48:31.001Z,3.13
2022-08-03T06:50:57.638Z,3.15
2022-08-03T06:53:24.257Z,2.95
2022-08-03T06:55:54.694Z,2.95
2022-08-03T06:58:23.110Z,3.85
2022-08-03T07:00:50.169Z,2.88
2022-08-03T07:03:17.151Z,3.08
2022-08-03T07:05:44.214Z,3.03
2022-08-03T07:08:10.870Z,3.13
2022-08-03T07:10:37.595Z,2.92
2022-08-03T07:13:04.494Z,3.10
2022-08-03T07:15:54.095Z,2.83
2022-08-03T07:18:25.685Z,2.67
2022-08-03T07:20:56.396Z,2.75
2022-08-03T07:23:23.088Z,2.45
2022-08-03T07:25:49.765Z,2.65
2022-08-03T07:28:16.472Z,2.65
2022-08-03T07:30:44.554Z,2.80
2022-08-03T07:33:11.493Z,2.47
2022-08-03T07:35:38.408Z,2.78
2022-08-03T07:38:05.114Z,2.83
2022-08-03T07:40:32.184Z,2.50
2022-08-03T07:42:59.729Z,2.42
2022-08-03T07:45:26.367Z,2.90
2022-08-03T07:47:54.545Z,2.58
2022-08-03T07:50:21.934Z,2.87
2022-08-03T07:52:48.776Z,2.65
2022-08-03T07:55:15.720Z,2.80
2022-08-03T07:57:42.666Z,2.55
2022-08-03T08:00:14.789Z,2.50
2022-08-03T08:02:59.388Z,2.55
2022-08-03T08:05:27.731Z,2.30
2022-08-03T08:07:54.625Z,2.57
2022-08-03T08:10:21.585Z,2.70
2022-08-03T08:12:48.872Z,2.20
2022-08-03T08:15:15.819Z,2.30
2022-08-03T08:17:44.792Z,2.05
2022-08-03T08:20:15.751Z,2.30
2022-08-03T08:22:49.894Z,2.40
2022-08-03T08:25:19.466Z,2.35
2022-08-03T08:28:22.474Z,2.17
2022-08-03T08:30:35.045Z,2.20
2022-08-03T08:33:02.023Z,1.98
2022-08-03T08:35:28.880Z,2.10
2022-08-03T08:37:57.011Z,1.85
2022-08-03T08:40:25.129Z,1.90
2022-08-03T08:42:58.511Z,1.80
2022-08-03T08:45:26.133Z,1.70
2022-08-03T08:47:59.742Z,2.10
2022-08-03T08:50:29.632Z,1.73
2022-08-03T08:53:01.955Z,2.03
2022-08-03T08:55:29.579Z,1.88
2022-08-03T08:58:20.926Z,1.80
2022-08-03T09:00:51.092Z,1.85
2022-08-03T09:03:29.433Z,1.75
2022-08-03T09:05:59.521Z,1.95
2022-08-03T09:08:29.037Z,1.70
2022-08-03T09:10:55.839Z,1.80
2022-08-03T09:13:22.884Z,2.00
2022-08-03T09:16:08.616Z,1.83
2022-08-03T09:18:35.350Z,1.50
2022-08-03T09:21:30.206Z,1.30
2022-08-03T09:24:03.248Z,1.17
2022-08-03T09:26:31.642Z,1.50
2022-08-03T09:29:05.703Z,1.75
2022-08-03T09:31:39.112Z,1.73
2022-08-03T09:34:11.630Z,1.60
2022-08-03T09:36:41.130Z,1.60
2022-08-03T09:39:10.598Z,1.30
2022-08-03T09:41:38.536Z,1.30
2022-08-03T09:44:05.412Z,1.25
2022-08-03T09:46:32.344Z,1.58
2022-08-03T09:49:12.859Z,1.45
2022-08-03T09:52:31.737Z,1.40
2022-08-03T09:54:29.652Z,1.65
2022-08-03T09:59:24.820Z,1.77
2022-08-03T10:01:53.539Z,1.67
2022-08-03T10:04:20.482Z,1.60
2022-08-03T10:07:03.114Z,1.45
2022-08-03T10:09:31.227Z,1.40
2022-08-03T10:12:06.705Z,1.40
2022-08-03T10:14:33.991Z,1.40
2022-08-03T10:17:00.590Z,1.45
2022-08-03T10:19:27.303Z,1.42
2022-08-03T10:21:56.220Z,1.10
2022-08-03T10:24:26.142Z,1.38
2022-08-03T10:27:01.453Z,1.50
2022-08-03T10:29:29.482Z,1.20
2022-08-03T10:31:59.015Z,1.30
2022-08-03T10:34:28.978Z,1.60
2022-08-03T10:36:59.124Z,1.50
2022-08-03T10:39:29.119Z,1.40
2022-08-03T10:41:58.561Z,1.42
2022-08-03T10:44:37.137Z,1.50
2022-08-03T10:47:04.861Z,1.30
2022-08-03T10:49:35.357Z,1.40
2022-08-03T10:52:11.349Z,1.38
2022-08-03T10:54:41.792Z,1.67
2022-08-03T10:57:50.212Z,1.40
2022-08-03T11:03:06.137Z,1.38
2022-08-03T11:05:34.451Z,1.27
2022-08-03T11:08:22.412Z,1.48
2022-08-03T11:10:50.327Z,1.30
2022-08-03T11:13:20.775Z,1.20
2022-08-03T11:15:50.508Z,1.10
2022-08-03T11:18:17.536Z,1.20
2022-08-03T11:20:48.227Z,1.48
2022-08-03T11:23:15.644Z,1.30
2022-08-03T11:26:10.972Z,1.30
2022-08-03T11:28:39.847Z,1.17
2022-08-03T11:31:51.889Z,1.30
2022-08-03T11:34:18.762Z,1.30
2022-08-03T11:37:20.600Z,1.40
2022-08-03T11:39:49.941Z,1.70
2022-08-03T11:45:07.696Z,1.30
2022-08-03T11:47:38.008Z,1.20
2022-08-03T11:50:18.220Z,1.30
2022-08-03T11:52:45.069Z,1.25
2022-08-03T11:55:18.248Z,1.40
2022-08-03T11:59:14.278Z,1.50
2022-08-03T12:00:33.416Z,1.40
2022-08-03T12:03:03.401Z,1.30
2022-08-03T12:05:51.896Z,1.40
2022-08-03T12:08:30.026Z,1.40
2022-08-03T12:10:58.523Z,1.20
2022-08-03T12:14:26.992Z,1.20
2022-08-03T12:16:17.983Z,1.30
2022-08-03T12:18:44.633Z,1.02
2022-08-03T12:21:12.395Z,1.20
2022-08-03T12:23:39.922Z,1.30
2022-08-03T12:26:08.377Z,1.38
2022-08-03T12:28:37.853Z,1.00
2022-08-03T12:31:07.136Z,1.38
2022-08-03T12:33:55.514Z,1.40
2022-08-03T12:36:22.268Z,1.40
2022-08-03T12:38:55.975Z,1.35
2022-08-03T12:41:28.996Z,1.30
2022-08-03T12:43:55.805Z,1.50
2022-08-03T12:46:22.935Z,1.40
2022-08-03T12:49:03.428Z,1.45
2022-08-03T12:51:32.481Z,1.40
2022-08-03T12:53:59.564Z,0.80
2022-08-03T12:56:26.373Z,1.98
2022-08-03T12:58:53.355Z,1.38
2022-08-03T13:01:20.693Z,1.40
2022-08-03T13:03:52.941Z,1.38
2022-08-03T13:06:22.614Z,1.20
2022-08-03T13:08:49.849Z,1.33
2022-08-03T13:11:55.914Z,1.40
2022-08-03T13:14:13.607Z,1.40
2022-08-03T13:16:46.626Z,1.65
2022-08-03T13:19:15.704Z,1.30
2022-08-03T13:21:53.713Z,1.10
2022-08-03T13:24:31.568Z,1.20
2022-08-03T13:26:58.552Z,1.30
2022-08-03T13:29:25.235Z,1.23
2022-08-03T13:31:51.975Z,1.30
2022-08-03T13:34:23.070Z,1.20
2022-08-03T13:37:08.518Z,1.60
2022-08-03T13:39:48.242Z,1.23
2022-08-03T13:42:22.523Z,1.35
2022-08-03T13:44:49.120Z,1.15
2022-08-03T13:47:15.825Z,1.40
2022-08-03T13:49:42.667Z,1.85
2022-08-03T13:52:22.390Z,1.20
2022-08-03T13:54:49.040Z,1.30
2022-08-03T13:58:04.730Z,1.40
2022-08-03T14:00:02.639Z,0.80
2022-08-03T14:02:29.550Z,1.50
2022-08-03T14:04:56.266Z,1.42
2022-08-03T14:07:24.302Z,1.40
2022-08-03T14:09:50.937Z,1.20
2022-08-03T14:12:17.709Z,1.50
2022-08-03T14:14:44.377Z,1.35
2022-08-03T14:17:11.115Z,1.30
2022-08-03T14:19:52.596Z,1.20
2022-08-03T14:22:20.587Z,1.25
2022-08-03T14:24:49.335Z,1.40
2022-08-03T14:29:42.632Z,1.20
2022-08-03T14:32:12.907Z,1.20
2022-08-03T14:34:40.408Z,1.30
2022-08-03T14:37:07.417Z,1.40
2022-08-03T14:42:22.158Z,1.33
2022-08-03T14:44:48.780Z,1.13
2022-08-03T14:47:15.424Z,1.10
2022-08-03T14:50:38.131Z,1.20
2022-08-03T14:52:29.352Z,1.40
2022-08-03T14:54:56.134Z,1.42
2022-08-03T14:57:24.432Z,1.33
2022-08-03T14:59:55.461Z,1.02
2022-08-03T15:02:24.524Z,1.15
2022-08-03T15:04:51.532Z,1.17
2022-08-03T15:07:18.584Z,1.02
2022-08-03T15:09:45.427Z,1.15
2022-08-03T15:12:12.079Z,1.30
2022-08-03T15:14:40.074Z,1.42
2022-08-03T15:17:07.119Z,1.20
2022-08-03T15:20:01.639Z,1.20
2022-08-03T15:22:25.209Z,1.20
2022-08-03T15:25:01.235Z,1.13
2022-08-03T15:27:27.831Z,1.33
2022-08-03T15:30:09.065Z,1.10
2022-08-03T15:32:37.077Z,1.40
2022-08-03T15:35:04.242Z,1.40
2022-08-03T15:37:30.866Z,1.08
2022-08-03T15:39:58.796Z,1.17
2022-08-03T15:42:26.807Z,1.20
2022-08-03T15:44:55.506Z,1.27
2022-08-03T15:47:22.373Z,1.10
2022-08-03T15:49:49.235Z,1.48
2022-08-03T15:52:15.922Z,1.20
2022-08-03T15:54:42.885Z,1.20
2022-08-03T15:57:09.512Z,1.30
2022-08-03T15:59:36.132Z,1.30
2022-08-03T16:02:04.446Z,1.20
2022-08-03T16:04:31.146Z,1.10
2022-08-03T16:06:57.772Z,1.05
2022-08-03T16:09:42.332Z,1.15
2022-08-03T16:12:15.588Z,1.25
2022-08-03T16:14:51.846Z,1.20
2022-08-03T16:17:22.873Z,1.00
2022-08-03T16:19:49.777Z,1.17
2022-08-03T16:22:16.543Z,1.10
2022-08-03T16:24:47.537Z,1.20
2022-08-03T16:27:17.353Z,1.20
2022-08-03T16:30:03.538Z,1.17
2022-08-03T16:32:32.956Z,1.20
2022-08-03T16:34:59.900Z,1.20
2022-08-03T16:37:56.174Z,1.17
2022-08-03T16:40:17.409Z,1.10
2022-08-03T16:42:46.791Z,1.15
2022-08-03T16:45:13.868Z,1.20
2022-08-03T16:47:41.882Z,1.10
2022-08-03T16:50:17.161Z,1.10
2022-08-03T16:52:47.289Z,1.10
2022-08-03T16:55:15.666Z,1.38
2022-08-03T16:57:58.517Z,1.10
2022-08-03T17:00:33.890Z,1.17
2022-08-03T17:03:12.396Z,1.20
2022-08-03T17:05:47.765Z,1.13
2022-08-03T17:08:15.060Z,1.10
2022-08-03T17:10:42.744Z,1.17
2022-08-03T17:13:12.328Z,1.20
2022-08-03T17:15:58.573Z,1.20
2022-08-03T17:18:33.989Z,1.05
2022-08-03T17:21:04.127Z,1.08
2022-08-03T17:23:42.585Z,1.30
2022-08-03T17:26:20.770Z,0.98
2022-08-03T17:28:57.447Z,1.00
2022-08-03T17:31:31.198Z,1.10
2022-08-03T17:34:01.890Z,1.20
2022-08-03T17:37:00.899Z,1.25
2022-08-03T17:39:17.176Z,1.30
2022-08-03T17:41:49.011Z,1.23
2022-08-03T17:44:32.062Z,1.20
2022-08-03T17:47:04.818Z,1.00
2022-08-03T17:49:39.986Z,1.10
2022-08-03T17:52:20.120Z,1.20
2022-08-03T17:55:50.714Z,1.10
2022-08-03T17:58:02.063Z,1.02
2022-08-03T18:00:30.573Z,1.20
2022-08-03T18:03:09.929Z,1.20
2022-08-03T18:06:11.943Z,1.30
2022-08-03T18:08:30.335Z,1.20
2022-08-03T18:11:09.688Z,1.20
2022-08-03T18:13:45.429Z,1.20
2022-08-03T18:16:33.922Z,1.10
2022-08-03T18:19:01.566Z,1.10
2022-08-03T18:22:02.944Z,1.40
2022-08-03T18:24:25.060Z,1.40
2022-08-03T18:26:53.896Z,1.60
2022-08-03T18:29:22.137Z,1.73
2022-08-03T18:32:03.415Z,1.83
2022-08-03T18:34:34.396Z,2.05
2022-08-03T18:37:07.356Z,1.88
2022-08-03T18:39:49.287Z,2.03
2022-08-03T18:42:19.526Z,1.80
2022-08-03T18:44:54.371Z,1.70
2022-08-03T18:47:52.139Z,1.70
2022-08-03T18:50:27.082Z,2.10
2022-08-03T18:53:03.640Z,1.70
2022-08-03T18:55:32.902Z,1.60
2022-08-03T18:58:09.791Z,1.85
2022-08-03T19:00:54.142Z,1.50
2022-08-03T19:03:25.227Z,1.90
2022-08-03T19:06:19.659Z,1.27
2022-08-03T19:08:54.112Z,1.75
2022-08-03T19:11:28.278Z,1.60
2022-08-03T19:13:58.113Z,1.88
2022-08-03T19:16:31.563Z,1.58
2022-08-03T19:19:00.940Z,1.80
2022-08-03T19:21:29.470Z,1.77
2022-08-03T19:24:00.508Z,1.60
2022-08-03T19:26:30.982Z,1.60
2022-08-03T19:28:58.550Z,1.42
2022-08-03T19:31:31.100Z,1.70
2022-08-03T19:34:02.961Z,1.80
2022-08-03T19:36:29.993Z,1.80
2022-08-03T19:38:58.504Z,1.90
2022-08-03T19:41:42.287Z,2.05
2022-08-03T19:44:11.048Z,2.30
2022-08-03T19:46:46.640Z,2.38
2022-08-03T19:49:16.291Z,2.05
2022-08-03T19:52:00.968Z,2.53
2022-08-03T19:54:36.916Z,2.33
2022-08-03T19:57:17.080Z,2.40
2022-08-03T19:59:50.036Z,1.88
2022-08-03T20:02:26.915Z,2.47
2022-08-03T20:04:55.029Z,2.20
2022-08-03T20:07:23.728Z,2.30
2022-08-03T20:09:54.426Z,2.90
2022-08-03T20:12:39.639Z,2.28
2022-08-03T20:15:08.122Z,2.13
2022-08-03T20:20:24.026Z,2.10
2022-08-03T20:22:53.636Z,1.90
2022-08-03T20:25:37.983Z,2.10
2022-08-03T20:28:13.819Z,2.30
2022-08-03T20:30:43.837Z,2.30
2022-08-03T20:33:10.779Z,2.50
2022-08-03T20:35:37.495Z,2.50
2022-08-03T20:38:04.121Z,2.35
2022-08-03T20:40:32.953Z,2.30
2022-08-03T20:42:59.637Z,2.38
2022-08-03T20:45:58.542Z,2.83
2022-08-03T20:48:17.944Z,2.33
2022-08-03T20:50:48.765Z,2.40
2022-08-03T20:53:16.691Z,2.30
2022-08-03T20:56:05.330Z,2.88
2022-08-03T20:58:35.345Z,3.22
2022-08-03T21:01:02.899Z,3.22
2022-08-03T21:03:40.605Z,3.42
2022-08-03T21:06:11.922Z,3.58
2022-08-03T21:08:48.110Z,3.60
2022-08-03T21:11:18.275Z,3.80
2022-08-03T21:13:51.892Z,4.32
2022-08-03T21:16:20.515Z,3.90
2022-08-03T21:18:50.180Z,3.65
2022-08-03T21:21:20.918Z,3.70
2022-08-03T21:23:50.128Z,3.55
2022-08-03T21:26:19.708Z,4.00
2022-08-03T21:28:47.295Z,3.60
2022-08-03T21:31:13.996Z,3.40
2022-08-03T21:33:41.260Z,3.55
2022-08-03T21:36:14.557Z,3.75
2022-08-03T21:38:42.532Z,4.22
2022-08-03T21:41:09.428Z,3.30
2022-08-03T21:43:37.536Z,3.72
2022-08-03T21:46:06.361Z,4.72
2022-08-03T21:48:38.146Z,3.78
2022-08-03T21:51:06.114Z,3.85
2022-08-03T21:54:03.670Z,3.88
2022-08-03T21:56:21.671Z,3.60
2022-08-03T21:58:53.262Z,3.40
2022-08-03T22:01:23.699Z,3.80
2022-08-03T22:03:53.129Z,3.40
2022-08-03T22:06:21.173Z,3.75
2022-08-03T22:08:51.740Z,3.43
2022-08-03T22:11:19.101Z,3.80
2022-08-03T22:13:46.152Z,4.05
2022-08-03T22:16:14.832Z,4.05
2022-08-03T22:18:44.153Z,3.58
2022-08-03T22:21:13.296Z,3.92
2022-08-03T22:26:11.773Z,4.10
2022-08-03T22:28:38.903Z,4.13
2022-08-03T22:31:37.628Z,3.83
2022-08-03T22:33:54.973Z,4.05
2022-08-03T22:36:24.027Z,4.20
2022-08-03T22:38:51.927Z,4.07
2022-08-03T22:41:19.241Z,4.25
2022-08-03T22:43:45.844Z,3.72
2022-08-03T22:46:18.273Z,4.18
2022-08-03T22:48:47.240Z,3.97
2022-08-03T22:51:15.761Z,3.42
2022-08-03T22:53:44.903Z,4.00
2022-08-03T22:56:11.797Z,3.83
2022-08-03T22:58:38.968Z,3.35
2022-08-03T23:01:08.038Z,3.30
2022-08-03T23:04:00.341Z,3.08
2022-08-03T23:06:33.220Z,3.20
2022-08-03T23:09:00.403Z,3.28
2022-08-03T23:11:28.417Z,3.53
2022-08-03T23:13:59.190Z,3.60
2022-08-03T23:16:28.615Z,3.53
2022-08-03T23:18:58.005Z,3.53
2022-08-03T23:21:52.884Z,3.47
2022-08-03T23:24:25.986Z,3.63
2022-08-03T23:26:56.841Z,3.70
2022-08-03T23:29:23.737Z,3.00
2022-08-03T23:31:53.665Z,3.10
2022-08-03T23:34:23.358Z,3.50
2022-08-03T23:36:52.271Z,3.10
2022-08-03T23:39:19.499Z,3.42
2022-08-03T23:41:48.287Z,3.00
2022-08-03T23:44:17.592Z,3.58
2022-08-03T23:46:45.555Z,3.40
2022-08-03T23:49:12.169Z,3.70
2022-08-03T23:51:47.011Z,3.80
2022-08-03T23:54:30.416Z,3.22
2022-08-03T23:57:07.977Z,3.47
2022-08-03T23:59:44.076Z,3.55
